sensor_id;sensor_type;location;lat;lon;timestamp;P1;durP1;ratioP1;P2;durP2;ratioP2
13311;SDS011;34033;48.672;9.376;2024-02-23T00:00:29;0.00;;;0.00;;
13311;SDS011;34033;48.672;9.376;2024-02-23T00:02:54;0.00;;;0.00;;
13311;SDS011;34033;48.672;9.376;2024-02-23T00:05:22;0.00;;;0.00;;
13311;SDS011;34033;48.672;9.376;2024-02-23T00:07:47;0.00;;;0.00;;
13311;SDS011;34033;48.672;9.376;2024-02-23T00:10:13;0.00;;;0.00;;
13311;SDS011;34033;48.672;9.376;2024-02-23T00:12:38;0.00;;;0.00;;
13311;SDS011;34033;48.672;9.376;2024-02-23T00:15:03;0.00;;;0.00;;
13311;SDS011;34033;48.672;9.376;2024-02-23T00:17:29;0.00;;;0.00;;
13311;SDS011;34033;48.672;9.376;2024-02-23T00:19:54;0.00;;;0.00;;
13311;SDS011;34033;48.672;9.376;2024-02-23T00:22:20;0.00;;;0.00;;
13311;SDS011;34033;48.672;9.376;2024-02-23T00:24:45;0.00;;;0.00;;
13311;SDS011;34033;48.672;9.376;2024-02-23T00:27:10;0.00;;;0.00;;
13311;SDS011;34033;48.672;9.376;2024-02-23T00:29:36;0.00;;;0.00;;
13311;SDS011;34033;48.672;9.376;2024-02-23T00:32:02;0.00;;;0.00;;
13311;SDS011;34033;48.672;9.376;2024-02-23T00:34:29;0.00;;;0.00;;
13311;SDS011;34033;48.672;9.376;2024-02-23T00:36:56;0.00;;;0.00;;
13311;SDS011;34033;48.672;9.376;2024-02-23T00:39:22;0.00;;;0.00;;
13311;SDS011;34033;48.672;9.376;2024-02-23T00:41:48;0.20;;;0.20;;
13311;SDS011;34033;48.672;9.376;2024-02-23T00:44:13;0.00;;;0.00;;
13311;SDS011;34033;48.672;9.376;2024-02-23T00:46:38;0.00;;;0.00;;
13311;SDS011;34033;48.672;9.376;2024-02-23T00:49:05;0.00;;;0.00;;
13311;SDS011;34033;48.672;9.376;2024-02-23T00:51:30;0.00;;;0.00;;
13311;SDS011;34033;48.672;9.376;2024-02-23T00:53:56;0.00;;;0.00;;
13311;SDS011;34033;48.672;9.376;2024-02-23T00:56:21;2.77;;;0.10;;
13311;SDS011;34033;48.672;9.376;2024-02-23T00:58:47;0.00;;;0.00;;
13311;SDS011;34033;48.672;9.376;2024-02-23T01:01:12;0.00;;;0.00;;
13311;SDS011;34033;48.672;9.376;2024-02-23T01:03:37;0.00;;;0.00;;
13311;SDS011;34033;48.672;9.376;2024-02-23T01:06:03;0.00;;;0.00;;
13311;SDS011;34033;48.672;9.376;2024-02-23T01:08:28;0.00;;;0.00;;
13311;SDS011;34033;48.672;9.376;2024-02-23T01:10:54;0.00;;;0.00;;
13311;SDS011;34033;48.672;9.376;2024-02-23T01:13:19;0.00;;;0.00;;
13311;SDS011;34033;48.672;9.376;2024-02-23T01:15:44;0.00;;;0.00;;
13311;SDS011;34033;48.672;9.376;2024-02-23T01:18:10;0.00;;;0.00;;
13311;SDS011;34033;48.672;9.376;2024-02-23T01:20:35;0.00;;;0.00;;
13311;SDS011;34033;48.672;9.376;2024-02-23T01:23:01;0.00;;;0.00;;
13311;SDS011;34033;48.672;9.376;2024-02-23T01:25:26;0.03;;;0.03;;
13311;SDS011;34033;48.672;9.376;2024-02-23T01:27:52;0.00;;;0.00;;
13311;SDS011;34033;48.672;9.376;2024-02-23T01:30:17;0.00;;;0.00;;
13311;SDS011;34033;48.672;9.376;2024-02-23T01:32:44;0.00;;;0.00;;
13311;SDS011;34033;48.672;9.376;2024-02-23T01:35:09;0.10;;;0.00;;
13311;SDS011;34033;48.672;9.376;2024-02-23T01:37:35;0.03;;;0.00;;
13311;SDS011;34033;48.672;9.376;2024-02-23T01:40:00;0.33;;;0.10;;
13311;SDS011;34033;48.672;9.376;2024-02-23T01:42:26;0.00;;;0.00;;
13311;SDS011;34033;48.672;9.376;2024-02-23T01:44:52;0.00;;;0.00;;
13311;SDS011;34033;48.672;9.376;2024-02-23T01:47:17;0.00;;;0.00;;
13311;SDS011;34033;48.672;9.376;2024-02-23T01:49:44;0.00;;;0.00;;
13311;SDS011;34033;48.672;9.376;2024-02-23T01:52:11;0.00;;;0.00;;
13311;SDS011;34033;48.672;9.376;2024-02-23T01:54:39;0.20;;;0.10;;
13311;SDS011;34033;48.672;9.376;2024-02-23T01:57:04;0.07;;;0.07;;
13311;SDS011;34033;48.672;9.376;2024-02-23T01:59:31;0.10;;;0.10;;
13311;SDS011;34033;48.672;9.376;2024-02-23T02:01:57;0.13;;;0.13;;
13311;SDS011;34033;48.672;9.376;2024-02-23T02:04:23;0.00;;;0.00;;
13311;SDS011;34033;48.672;9.376;2024-02-23T02:06:48;0.00;;;0.00;;
13311;SDS011;34033;48.672;9.376;2024-02-23T02:09:14;0.80;;;0.40;;
13311;SDS011;34033;48.672;9.376;2024-02-23T02:11:45;0.17;;;0.17;;
13311;SDS011;34033;48.672;9.376;2024-02-23T02:14:12;0.00;;;0.00;;
13311;SDS011;34033;48.672;9.376;2024-02-23T02:16:38;0.10;;;0.10;;
13311;SDS011;34033;48.672;9.376;2024-02-23T02:19:04;0.27;;;0.20;;
13311;SDS011;34033;48.672;9.376;2024-02-23T02:21:29;0.87;;;0.10;;
13311;SDS011;34033;48.672;9.376;2024-02-23T02:23:56;0.00;;;0.00;;
13311;SDS011;34033;48.672;9.376;2024-02-23T02:26:21;0.10;;;0.10;;
13311;SDS011;34033;48.672;9.376;2024-02-23T02:28:47;0.00;;;0.00;;
13311;SDS011;34033;48.672;9.376;2024-02-23T02:31:12;0.00;;;0.00;;
13311;SDS011;34033;48.672;9.376;2024-02-23T02:33:37;0.00;;;0.00;;
13311;SDS011;34033;48.672;9.376;2024-02-23T02:36:05;0.10;;;0.10;;
13311;SDS011;34033;48.672;9.376;2024-02-23T02:38:31;0.00;;;0.00;;
13311;SDS011;34033;48.672;9.376;2024-02-23T02:40:58;0.00;;;0.00;;
13311;SDS011;34033;48.672;9.376;2024-02-23T02:43:25;0.27;;;0.10;;
13311;SDS011;34033;48.672;9.376;2024-02-23T02:45:50;0.00;;;0.00;;
13311;SDS011;34033;48.672;9.376;2024-02-23T02:48:16;0.03;;;0.03;;
13311;SDS011;34033;48.672;9.376;2024-02-23T02:50:42;0.00;;;0.00;;
13311;SDS011;34033;48.672;9.376;2024-02-23T02:53:07;0.07;;;0.07;;
13311;SDS011;34033;48.672;9.376;2024-02-23T02:55:32;0.20;;;0.00;;
13311;SDS011;34033;48.672;9.376;2024-02-23T02:57:58;0.13;;;0.13;;
13311;SDS011;34033;48.672;9.376;2024-02-23T03:00:23;0.07;;;0.07;;
13311;SDS011;34033;48.672;9.376;2024-02-23T03:02:49;0.00;;;0.00;;
13311;SDS011;34033;48.672;9.376;2024-02-23T03:05:14;0.00;;;0.00;;
13311;SDS011;34033;48.672;9.376;2024-02-23T03:07:40;0.00;;;0.00;;
13311;SDS011;34033;48.672;9.376;2024-02-23T03:10:06;0.00;;;0.00;;
13311;SDS011;34033;48.672;9.376;2024-02-23T03:12:32;0.40;;;0.10;;
13311;SDS011;34033;48.672;9.376;2024-02-23T03:14:57;0.00;;;0.00;;
13311;SDS011;34033;48.672;9.376;2024-02-23T03:17:23;0.00;;;0.00;;
13311;SDS011;34033;48.672;9.376;2024-02-23T03:19:48;0.20;;;0.00;;
13311;SDS011;34033;48.672;9.376;2024-02-23T03:22:15;0.00;;;0.00;;
13311;SDS011;34033;48.672;9.376;2024-02-23T03:24:40;0.00;;;0.00;;
13311;SDS011;34033;48.672;9.376;2024-02-23T03:27:06;0.00;;;0.00;;
13311;SDS011;34033;48.672;9.376;2024-02-23T03:29:31;0.00;;;0.00;;
13311;SDS011;34033;48.672;9.376;2024-02-23T03:31:57;0.00;;;0.00;;
13311;SDS011;34033;48.672;9.376;2024-02-23T03:34:23;0.10;;;0.03;;
13311;SDS011;34033;48.672;9.376;2024-02-23T03:36:49;0.00;;;0.00;;
13311;SDS011;34033;48.672;9.376;2024-02-23T03:39:14;0.00;;;0.00;;
13311;SDS011;34033;48.672;9.376;2024-02-23T03:41:39;0.10;;;0.10;;
13311;SDS011;34033;48.672;9.376;2024-02-23T03:44:05;0.00;;;0.00;;
13311;SDS011;34033;48.672;9.376;2024-02-23T03:46:30;0.07;;;0.07;;
13311;SDS011;34033;48.672;9.376;2024-02-23T03:48:56;0.00;;;0.00;;
13311;SDS011;34033;48.672;9.376;2024-02-23T03:51:22;0.03;;;0.00;;
13311;SDS011;34033;48.672;9.376;2024-02-23T03:53:47;0.00;;;0.00;;
13311;SDS011;34033;48.672;9.376;2024-02-23T03:56:13;0.00;;;0.00;;
13311;SDS011;34033;48.672;9.376;2024-02-23T03:58:38;0.00;;;0.00;;
13311;SDS011;34033;48.672;9.376;2024-02-23T04:01:03;0.00;;;0.00;;
13311;SDS011;34033;48.672;9.376;2024-02-23T04:03:29;0.00;;;0.00;;
13311;SDS011;34033;48.672;9.376;2024-02-23T04:05:54;0.00;;;0.00;;
13311;SDS011;34033;48.672;9.376;2024-02-23T04:08:19;0.00;;;0.00;;
13311;SDS011;34033;48.672;9.376;2024-02-23T04:10:45;0.00;;;0.00;;
13311;SDS011;34033;48.672;9.376;2024-02-23T04:13:10;2.03;;;0.07;;
13311;SDS011;34033;48.672;9.376;2024-02-23T04:15:38;0.00;;;0.00;;
13311;SDS011;34033;48.672;9.376;2024-02-23T04:18:04;0.00;;;0.00;;
13311;SDS011;34033;48.672;9.376;2024-02-23T04:20:30;0.00;;;0.00;;
13311;SDS011;34033;48.672;9.376;2024-02-23T04:22:55;0.00;;;0.00;;
13311;SDS011;34033;48.672;9.376;2024-02-23T04:25:21;0.00;;;0.00;;
13311;SDS011;34033;48.672;9.376;2024-02-23T04:27:46;0.00;;;0.00;;
13311;SDS011;34033;48.672;9.376;2024-02-23T04:30:11;1.00;;;0.20;;
13311;SDS011;34033;48.672;9.376;2024-02-23T04:32:38;0.00;;;0.00;;
13311;SDS011;34033;48.672;9.376;2024-02-23T04:35:04;0.00;;;0.00;;
13311;SDS011;34033;48.672;9.376;2024-02-23T04:37:30;0.07;;;0.07;;
13311;SDS011;34033;48.672;9.376;2024-02-23T04:39:55;0.40;;;0.20;;
13311;SDS011;34033;48.672;9.376;2024-02-23T04:42:20;0.00;;;0.00;;
13311;SDS011;34033;48.672;9.376;2024-02-23T04:44:46;0.10;;;0.10;;
13311;SDS011;34033;48.672;9.376;2024-02-23T04:47:11;0.10;;;0.10;;
13311;SDS011;34033;48.672;9.376;2024-02-23T04:49:36;0.00;;;0.00;;
13311;SDS011;34033;48.672;9.376;2024-02-23T04:52:02;0.00;;;0.00;;
13311;SDS011;34033;48.672;9.376;2024-02-23T04:54:28;0.50;;;0.30;;
13311;SDS011;34033;48.672;9.376;2024-02-23T04:56:53;0.00;;;0.00;;
13311;SDS011;34033;48.672;9.376;2024-02-23T04:59:18;0.10;;;0.10;;
13311;SDS011;34033;48.672;9.376;2024-02-23T05:01:44;0.40;;;0.40;;
13311;SDS011;34033;48.672;9.376;2024-02-23T05:04:09;0.83;;;0.40;;
13311;SDS011;34033;48.672;9.376;2024-02-23T05:06:34;2.70;;;0.30;;
13311;SDS011;34033;48.672;9.376;2024-02-23T05:09:00;0.27;;;0.27;;
13311;SDS011;34033;48.672;9.376;2024-02-23T05:11:26;0.10;;;0.10;;
13311;SDS011;34033;48.672;9.376;2024-02-23T05:13:51;0.30;;;0.30;;
13311;SDS011;34033;48.672;9.376;2024-02-23T05:16:17;0.30;;;0.30;;
13311;SDS011;34033;48.672;9.376;2024-02-23T05:18:42;0.20;;;0.20;;
13311;SDS011;34033;48.672;9.376;2024-02-23T05:21:08;0.13;;;0.13;;
13311;SDS011;34033;48.672;9.376;2024-02-23T05:23:34;0.40;;;0.37;;
13311;SDS011;34033;48.672;9.376;2024-02-23T05:26:00;0.40;;;0.17;;
13311;SDS011;34033;48.672;9.376;2024-02-23T05:28:25;0.20;;;0.20;;
13311;SDS011;34033;48.672;9.376;2024-02-23T05:30:51;0.50;;;0.20;;
13311;SDS011;34033;48.672;9.376;2024-02-23T05:33:16;0.20;;;0.20;;
13311;SDS011;34033;48.672;9.376;2024-02-23T05:35:45;0.20;;;0.20;;
13311;SDS011;34033;48.672;9.376;2024-02-23T05:38:10;0.30;;;0.30;;
13311;SDS011;34033;48.672;9.376;2024-02-23T05:40:36;0.20;;;0.20;;
13311;SDS011;34033;48.672;9.376;2024-02-23T05:43:01;0.27;;;0.27;;
13311;SDS011;34033;48.672;9.376;2024-02-23T05:45:27;1.03;;;0.80;;
13311;SDS011;34033;48.672;9.376;2024-02-23T05:47:52;0.50;;;0.50;;
13311;SDS011;34033;48.672;9.376;2024-02-23T05:50:17;0.40;;;0.40;;
13311;SDS011;34033;48.672;9.376;2024-02-23T05:52:43;0.63;;;0.50;;
13311;SDS011;34033;48.672;9.376;2024-02-23T05:55:08;0.50;;;0.43;;
13311;SDS011;34033;48.672;9.376;2024-02-23T05:57:34;0.40;;;0.40;;
13311;SDS011;34033;48.672;9.376;2024-02-23T05:59:59;0.50;;;0.50;;
13311;SDS011;34033;48.672;9.376;2024-02-23T06:02:24;0.90;;;0.60;;
13311;SDS011;34033;48.672;9.376;2024-02-23T06:04:50;0.50;;;0.50;;
13311;SDS011;34033;48.672;9.376;2024-02-23T06:07:15;1.07;;;0.70;;
13311;SDS011;34033;48.672;9.376;2024-02-23T06:09:41;1.10;;;0.70;;
13311;SDS011;34033;48.672;9.376;2024-02-23T06:12:07;0.60;;;0.60;;
13311;SDS011;34033;48.672;9.376;2024-02-23T06:14:33;0.40;;;0.40;;
13311;SDS011;34033;48.672;9.376;2024-02-23T06:16:59;0.50;;;0.50;;
13311;SDS011;34033;48.672;9.376;2024-02-23T06:19:24;1.10;;;0.63;;
13311;SDS011;34033;48.672;9.376;2024-02-23T06:21:49;0.83;;;0.67;;
13311;SDS011;34033;48.672;9.376;2024-02-23T06:24:15;2.13;;;1.30;;
13311;SDS011;34033;48.672;9.376;2024-02-23T06:26:41;0.77;;;0.77;;
13311;SDS011;34033;48.672;9.376;2024-02-23T06:29:07;0.63;;;0.60;;
13311;SDS011;34033;48.672;9.376;2024-02-23T06:31:36;0.80;;;0.80;;
13311;SDS011;34033;48.672;9.376;2024-02-23T06:34:04;0.90;;;0.90;;
13311;SDS011;34033;48.672;9.376;2024-02-23T06:36:30;0.50;;;0.50;;
13311;SDS011;34033;48.672;9.376;2024-02-23T06:38:55;0.50;;;0.50;;
13311;SDS011;34033;48.672;9.376;2024-02-23T06:41:21;1.17;;;0.70;;
13311;SDS011;34033;48.672;9.376;2024-02-23T06:43:46;0.70;;;0.70;;
13311;SDS011;34033;48.672;9.376;2024-02-23T06:46:12;1.80;;;1.27;;
13311;SDS011;34033;48.672;9.376;2024-02-23T06:48:37;2.10;;;1.37;;
13311;SDS011;34033;48.672;9.376;2024-02-23T06:51:04;1.40;;;1.30;;
13311;SDS011;34033;48.672;9.376;2024-02-23T06:53:35;1.77;;;1.43;;
13311;SDS011;34033;48.672;9.376;2024-02-23T06:56:00;1.67;;;1.53;;
13311;SDS011;34033;48.672;9.376;2024-02-23T06:58:26;2.60;;;1.67;;
13311;SDS011;34033;48.672;9.376;2024-02-23T07:00:51;1.43;;;1.33;;
13311;SDS011;34033;48.672;9.376;2024-02-23T07:03:17;1.57;;;1.47;;
13311;SDS011;34033;48.672;9.376;2024-02-23T07:05:43;2.50;;;1.67;;
13311;SDS011;34033;48.672;9.376;2024-02-23T07:08:08;2.73;;;1.83;;
13311;SDS011;34033;48.672;9.376;2024-02-23T07:10:33;6.40;;;2.93;;
13311;SDS011;34033;48.672;9.376;2024-02-23T07:12:59;3.60;;;2.30;;
13311;SDS011;34033;48.672;9.376;2024-02-23T07:15:24;2.53;;;2.13;;
13311;SDS011;34033;48.672;9.376;2024-02-23T07:17:51;2.30;;;2.10;;
13311;SDS011;34033;48.672;9.376;2024-02-23T07:20:17;2.20;;;2.00;;
13311;SDS011;34033;48.672;9.376;2024-02-23T07:22:45;1.70;;;1.53;;
13311;SDS011;34033;48.672;9.376;2024-02-23T07:25:11;2.77;;;2.00;;
13311;SDS011;34033;48.672;9.376;2024-02-23T07:27:40;2.37;;;1.97;;
13311;SDS011;34033;48.672;9.376;2024-02-23T07:30:05;2.60;;;1.80;;
13311;SDS011;34033;48.672;9.376;2024-02-23T07:32:31;3.10;;;2.10;;
13311;SDS011;34033;48.672;9.376;2024-02-23T07:34:57;2.73;;;1.20;;
13311;SDS011;34033;48.672;9.376;2024-02-23T07:37:22;1.90;;;1.23;;
13311;SDS011;34033;48.672;9.376;2024-02-23T07:39:47;1.30;;;0.93;;
13311;SDS011;34033;48.672;9.376;2024-02-23T07:42:13;1.17;;;1.07;;
13311;SDS011;34033;48.672;9.376;2024-02-23T07:44:39;1.40;;;1.30;;
13311;SDS011;34033;48.672;9.376;2024-02-23T07:47:05;4.70;;;0.97;;
13311;SDS011;34033;48.672;9.376;2024-02-23T07:49:31;1.50;;;0.80;;
13311;SDS011;34033;48.672;9.376;2024-02-23T07:51:56;1.13;;;1.03;;
13311;SDS011;34033;48.672;9.376;2024-02-23T07:54:21;1.00;;;1.00;;
13311;SDS011;34033;48.672;9.376;2024-02-23T07:56:47;0.90;;;0.80;;
13311;SDS011;34033;48.672;9.376;2024-02-23T07:59:12;0.80;;;0.80;;
13311;SDS011;34033;48.672;9.376;2024-02-23T08:01:38;0.80;;;0.80;;
13311;SDS011;34033;48.672;9.376;2024-02-23T08:04:05;1.00;;;1.00;;
13311;SDS011;34033;48.672;9.376;2024-02-23T08:06:30;0.60;;;0.60;;
13311;SDS011;34033;48.672;9.376;2024-02-23T08:08:55;0.60;;;0.60;;
13311;SDS011;34033;48.672;9.376;2024-02-23T08:11:21;0.70;;;0.70;;
13311;SDS011;34033;48.672;9.376;2024-02-23T08:13:46;1.80;;;0.90;;
13311;SDS011;34033;48.672;9.376;2024-02-23T08:16:12;0.30;;;0.30;;
13311;SDS011;34033;48.672;9.376;2024-02-23T08:18:37;0.80;;;0.80;;
13311;SDS011;34033;48.672;9.376;2024-02-23T08:21:02;0.60;;;0.60;;
13311;SDS011;34033;48.672;9.376;2024-02-23T08:23:30;0.67;;;0.67;;
13311;SDS011;34033;48.672;9.376;2024-02-23T08:25:56;1.90;;;0.83;;
13311;SDS011;34033;48.672;9.376;2024-02-23T08:28:23;0.80;;;0.80;;
13311;SDS011;34033;48.672;9.376;2024-02-23T08:30:48;2.13;;;0.83;;
13311;SDS011;34033;48.672;9.376;2024-02-23T08:33:14;0.60;;;0.60;;
13311;SDS011;34033;48.672;9.376;2024-02-23T08:35:39;0.67;;;0.63;;
13311;SDS011;34033;48.672;9.376;2024-02-23T08:38:05;0.53;;;0.53;;
13311;SDS011;34033;48.672;9.376;2024-02-23T08:40:30;1.37;;;0.73;;
13311;SDS011;34033;48.672;9.376;2024-02-23T08:42:56;0.80;;;0.80;;
13311;SDS011;34033;48.672;9.376;2024-02-23T08:45:21;0.63;;;0.50;;
13311;SDS011;34033;48.672;9.376;2024-02-23T08:47:46;0.60;;;0.53;;
13311;SDS011;34033;48.672;9.376;2024-02-23T08:50:12;0.40;;;0.40;;
13311;SDS011;34033;48.672;9.376;2024-02-23T08:52:37;0.40;;;0.40;;
13311;SDS011;34033;48.672;9.376;2024-02-23T08:55:03;0.33;;;0.33;;
13311;SDS011;34033;48.672;9.376;2024-02-23T08:57:28;0.30;;;0.30;;
13311;SDS011;34033;48.672;9.376;2024-02-23T08:59:53;0.30;;;0.30;;
13311;SDS011;34033;48.672;9.376;2024-02-23T09:02:20;0.60;;;0.40;;
13311;SDS011;34033;48.672;9.376;2024-02-23T09:04:46;0.17;;;0.13;;
13311;SDS011;34033;48.672;9.376;2024-02-23T09:07:11;0.37;;;0.37;;
13311;SDS011;34033;48.672;9.376;2024-02-23T09:09:37;0.30;;;0.20;;
13311;SDS011;34033;48.672;9.376;2024-02-23T09:12:03;1.03;;;0.40;;
13311;SDS011;34033;48.672;9.376;2024-02-23T09:14:28;0.20;;;0.20;;
13311;SDS011;34033;48.672;9.376;2024-02-23T09:16:54;0.40;;;0.30;;
13311;SDS011;34033;48.672;9.376;2024-02-23T09:19:20;0.40;;;0.40;;
13311;SDS011;34033;48.672;9.376;2024-02-23T09:21:45;0.30;;;0.30;;
13311;SDS011;34033;48.672;9.376;2024-02-23T09:24:11;0.30;;;0.30;;
13311;SDS011;34033;48.672;9.376;2024-02-23T09:26:37;0.30;;;0.30;;
13311;SDS011;34033;48.672;9.376;2024-02-23T09:29:02;0.63;;;0.53;;
13311;SDS011;34033;48.672;9.376;2024-02-23T09:31:28;0.70;;;0.60;;
13311;SDS011;34033;48.672;9.376;2024-02-23T09:33:54;0.60;;;0.60;;
13311;SDS011;34033;48.672;9.376;2024-02-23T09:36:20;0.50;;;0.50;;
13311;SDS011;34033;48.672;9.376;2024-02-23T09:38:45;0.20;;;0.20;;
13311;SDS011;34033;48.672;9.376;2024-02-23T09:41:22;5.83;;;0.57;;
13311;SDS011;34033;48.672;9.376;2024-02-23T09:43:49;0.80;;;0.60;;
13311;SDS011;34033;48.672;9.376;2024-02-23T09:46:18;0.40;;;0.40;;
13311;SDS011;34033;48.672;9.376;2024-02-23T09:48:43;0.57;;;0.40;;
13311;SDS011;34033;48.672;9.376;2024-02-23T09:51:10;0.40;;;0.30;;
13311;SDS011;34033;48.672;9.376;2024-02-23T09:53:37;0.87;;;0.30;;
13311;SDS011;34033;48.672;9.376;2024-02-23T09:56:03;0.37;;;0.37;;
13311;SDS011;34033;48.672;9.376;2024-02-23T09:58:33;0.37;;;0.37;;
13311;SDS011;34033;48.672;9.376;2024-02-23T10:01:01;0.40;;;0.40;;
13311;SDS011;34033;48.672;9.376;2024-02-23T10:03:28;0.30;;;0.30;;
13311;SDS011;34033;48.672;9.376;2024-02-23T10:05:56;0.20;;;0.20;;
13311;SDS011;34033;48.672;9.376;2024-02-23T10:08:22;0.53;;;0.53;;
13311;SDS011;34033;48.672;9.376;2024-02-23T10:10:47;0.20;;;0.20;;
13311;SDS011;34033;48.672;9.376;2024-02-23T10:13:18;0.23;;;0.23;;
13311;SDS011;34033;48.672;9.376;2024-02-23T10:15:45;0.40;;;0.40;;
13311;SDS011;34033;48.672;9.376;2024-02-23T10:18:12;0.77;;;0.77;;
13311;SDS011;34033;48.672;9.376;2024-02-23T10:20:37;0.87;;;0.60;;
13311;SDS011;34033;48.672;9.376;2024-02-23T10:23:04;1.57;;;0.90;;
13311;SDS011;34033;48.672;9.376;2024-02-23T10:25:29;0.43;;;0.30;;
13311;SDS011;34033;48.672;9.376;2024-02-23T10:27:55;0.20;;;0.20;;
13311;SDS011;34033;48.672;9.376;2024-02-23T10:30:20;0.80;;;0.70;;
13311;SDS011;34033;48.672;9.376;2024-02-23T10:32:46;0.33;;;0.20;;
13311;SDS011;34033;48.672;9.376;2024-02-23T10:35:14;0.07;;;0.07;;
13311;SDS011;34033;48.672;9.376;2024-02-23T10:37:44;0.93;;;0.40;;
13311;SDS011;34033;48.672;9.376;2024-02-23T10:40:15;0.33;;;0.30;;
13311;SDS011;34033;48.672;9.376;2024-02-23T10:42:43;0.10;;;0.10;;
13311;SDS011;34033;48.672;9.376;2024-02-23T10:45:14;0.27;;;0.27;;
13311;SDS011;34033;48.672;9.376;2024-02-23T10:47:40;2.07;;;0.30;;
13311;SDS011;34033;48.672;9.376;2024-02-23T10:50:07;0.17;;;0.17;;
13311;SDS011;34033;48.672;9.376;2024-02-23T10:52:32;0.27;;;0.27;;
13311;SDS011;34033;48.672;9.376;2024-02-23T10:55:00;0.43;;;0.40;;
13311;SDS011;34033;48.672;9.376;2024-02-23T10:57:30;0.30;;;0.30;;
13311;SDS011;34033;48.672;9.376;2024-02-23T10:59:59;1.17;;;0.30;;
13311;SDS011;34033;48.672;9.376;2024-02-23T11:02:26;0.47;;;0.47;;
13311;SDS011;34033;48.672;9.376;2024-02-23T11:04:54;0.20;;;0.20;;
13311;SDS011;34033;48.672;9.376;2024-02-23T11:07:22;0.73;;;0.50;;
13311;SDS011;34033;48.672;9.376;2024-02-23T11:09:53;0.83;;;0.80;;
13311;SDS011;34033;48.672;9.376;2024-02-23T11:12:23;0.40;;;0.40;;
13311;SDS011;34033;48.672;9.376;2024-02-23T11:14:49;1.20;;;0.50;;
13311;SDS011;34033;48.672;9.376;2024-02-23T11:17:18;0.23;;;0.23;;
13311;SDS011;34033;48.672;9.376;2024-02-23T11:19:49;0.30;;;0.30;;
13311;SDS011;34033;48.672;9.376;2024-02-23T11:22:20;0.10;;;0.10;;
13311;SDS011;34033;48.672;9.376;2024-02-23T11:25:00;0.47;;;0.47;;
13311;SDS011;34033;48.672;9.376;2024-02-23T11:27:30;0.37;;;0.37;;
13311;SDS011;34033;48.672;9.376;2024-02-23T11:30:01;0.20;;;0.20;;
13311;SDS011;34033;48.672;9.376;2024-02-23T11:32:38;0.70;;;0.40;;
13311;SDS011;34033;48.672;9.376;2024-02-23T11:35:05;0.40;;;0.20;;
13311;SDS011;34033;48.672;9.376;2024-02-23T11:37:32;0.30;;;0.30;;
13311;SDS011;34033;48.672;9.376;2024-02-23T11:39:58;0.47;;;0.17;;
13311;SDS011;34033;48.672;9.376;2024-02-23T11:42:26;0.43;;;0.43;;
13311;SDS011;34033;48.672;9.376;2024-02-23T11:44:52;0.30;;;0.30;;
13311;SDS011;34033;48.672;9.376;2024-02-23T11:47:18;0.67;;;0.53;;
13311;SDS011;34033;48.672;9.376;2024-02-23T11:49:44;0.27;;;0.27;;
13311;SDS011;34033;48.672;9.376;2024-02-23T11:52:09;0.67;;;0.30;;
13311;SDS011;34033;48.672;9.376;2024-02-23T11:54:35;0.20;;;0.20;;
13311;SDS011;34033;48.672;9.376;2024-02-23T11:57:01;5.23;;;0.40;;
13311;SDS011;34033;48.672;9.376;2024-02-23T11:59:26;0.30;;;0.30;;
13311;SDS011;34033;48.672;9.376;2024-02-23T12:01:52;0.50;;;0.50;;
13311;SDS011;34033;48.672;9.376;2024-02-23T12:04:17;0.40;;;0.33;;
13311;SDS011;34033;48.672;9.376;2024-02-23T12:06:42;1.30;;;0.50;;
13311;SDS011;34033;48.672;9.376;2024-02-23T12:09:08;1.23;;;0.60;;
13311;SDS011;34033;48.672;9.376;2024-02-23T12:11:34;0.57;;;0.57;;
13311;SDS011;34033;48.672;9.376;2024-02-23T12:14:00;1.07;;;0.37;;
13311;SDS011;34033;48.672;9.376;2024-02-23T12:16:32;0.40;;;0.40;;
13311;SDS011;34033;48.672;9.376;2024-02-23T12:18:59;0.57;;;0.57;;
13311;SDS011;34033;48.672;9.376;2024-02-23T12:21:26;0.40;;;0.40;;
13311;SDS011;34033;48.672;9.376;2024-02-23T12:23:51;0.53;;;0.40;;
13311;SDS011;34033;48.672;9.376;2024-02-23T12:26:17;1.17;;;0.90;;
13311;SDS011;34033;48.672;9.376;2024-02-23T12:28:43;0.20;;;0.20;;
13311;SDS011;34033;48.672;9.376;2024-02-23T12:31:09;0.50;;;0.40;;
13311;SDS011;34033;48.672;9.376;2024-02-23T12:33:35;0.23;;;0.23;;
13311;SDS011;34033;48.672;9.376;2024-02-23T12:36:03;0.27;;;0.27;;
13311;SDS011;34033;48.672;9.376;2024-02-23T12:38:29;0.90;;;0.37;;
13311;SDS011;34033;48.672;9.376;2024-02-23T12:40:55;0.47;;;0.30;;
13311;SDS011;34033;48.672;9.376;2024-02-23T12:43:21;0.83;;;0.20;;
13311;SDS011;34033;48.672;9.376;2024-02-23T12:45:49;1.27;;;0.50;;
13311;SDS011;34033;48.672;9.376;2024-02-23T12:48:15;0.30;;;0.30;;
13311;SDS011;34033;48.672;9.376;2024-02-23T12:50:41;6.90;;;0.50;;
13311;SDS011;34033;48.672;9.376;2024-02-23T12:53:08;0.20;;;0.20;;
13311;SDS011;34033;48.672;9.376;2024-02-23T12:55:34;1.70;;;0.27;;
13311;SDS011;34033;48.672;9.376;2024-02-23T12:58:01;1.17;;;0.80;;
13311;SDS011;34033;48.672;9.376;2024-02-23T13:00:27;0.30;;;0.30;;
13311;SDS011;34033;48.672;9.376;2024-02-23T13:02:52;3.17;;;0.47;;
13311;SDS011;34033;48.672;9.376;2024-02-23T13:05:18;0.53;;;0.47;;
13311;SDS011;34033;48.672;9.376;2024-02-23T13:07:43;0.47;;;0.47;;
13311;SDS011;34033;48.672;9.376;2024-02-23T13:10:09;0.60;;;0.30;;
13311;SDS011;34033;48.672;9.376;2024-02-23T13:12:34;0.20;;;0.20;;
13311;SDS011;34033;48.672;9.376;2024-02-23T13:14:59;0.37;;;0.37;;
13311;SDS011;34033;48.672;9.376;2024-02-23T13:17:25;0.80;;;0.50;;
13311;SDS011;34033;48.672;9.376;2024-02-23T13:19:50;0.27;;;0.27;;
13311;SDS011;34033;48.672;9.376;2024-02-23T13:22:15;0.20;;;0.20;;
13311;SDS011;34033;48.672;9.376;2024-02-23T13:24:41;1.63;;;0.47;;
13311;SDS011;34033;48.672;9.376;2024-02-23T13:27:06;1.30;;;0.20;;
13311;SDS011;34033;48.672;9.376;2024-02-23T13:29:31;0.20;;;0.20;;
13311;SDS011;34033;48.672;9.376;2024-02-23T13:31:57;1.50;;;0.50;;
13311;SDS011;34033;48.672;9.376;2024-02-23T13:34:22;0.33;;;0.33;;
13311;SDS011;34033;48.672;9.376;2024-02-23T13:36:47;0.93;;;0.50;;
13311;SDS011;34033;48.672;9.376;2024-02-23T13:39:14;0.67;;;0.40;;
13311;SDS011;34033;48.672;9.376;2024-02-23T13:41:40;0.53;;;0.50;;
13311;SDS011;34033;48.672;9.376;2024-02-23T13:44:05;1.67;;;0.60;;
13311;SDS011;34033;48.672;9.376;2024-02-23T13:46:31;0.57;;;0.30;;
13311;SDS011;34033;48.672;9.376;2024-02-23T13:49:03;0.77;;;0.60;;
13311;SDS011;34033;48.672;9.376;2024-02-23T13:51:30;0.80;;;0.50;;
13311;SDS011;34033;48.672;9.376;2024-02-23T13:53:58;0.40;;;0.40;;
13311;SDS011;34033;48.672;9.376;2024-02-23T13:56:24;3.30;;;0.90;;
13311;SDS011;34033;48.672;9.376;2024-02-23T13:58:49;1.60;;;0.97;;
13311;SDS011;34033;48.672;9.376;2024-02-23T14:01:15;1.30;;;0.63;;
13311;SDS011;34033;48.672;9.376;2024-02-23T14:03:40;0.60;;;0.60;;
13311;SDS011;34033;48.672;9.376;2024-02-23T14:06:06;1.07;;;0.50;;
13311;SDS011;34033;48.672;9.376;2024-02-23T14:08:31;0.40;;;0.40;;
13311;SDS011;34033;48.672;9.376;2024-02-23T14:10:59;0.70;;;0.57;;
13311;SDS011;34033;48.672;9.376;2024-02-23T14:13:27;0.50;;;0.50;;
13311;SDS011;34033;48.672;9.376;2024-02-23T14:15:52;2.10;;;0.50;;
13311;SDS011;34033;48.672;9.376;2024-02-23T14:18:18;0.40;;;0.40;;
13311;SDS011;34033;48.672;9.376;2024-02-23T14:20:44;1.57;;;0.60;;
13311;SDS011;34033;48.672;9.376;2024-02-23T14:23:09;0.40;;;0.40;;
13311;SDS011;34033;48.672;9.376;2024-02-23T14:25:35;1.90;;;0.60;;
13311;SDS011;34033;48.672;9.376;2024-02-23T14:28:00;1.57;;;1.03;;
13311;SDS011;34033;48.672;9.376;2024-02-23T14:30:25;0.93;;;0.83;;
13311;SDS011;34033;48.672;9.376;2024-02-23T14:32:50;0.50;;;0.50;;
13311;SDS011;34033;48.672;9.376;2024-02-23T14:35:16;1.07;;;0.50;;
13311;SDS011;34033;48.672;9.376;2024-02-23T14:37:41;0.83;;;0.40;;
13311;SDS011;34033;48.672;9.376;2024-02-23T14:40:07;0.30;;;0.30;;